createdAt,value
2023-04-09T00:00:06.443Z,8.26
2023-04-09T00:01:06.451Z,8.3
2023-04-09T00:02:11.396Z,8.32
2023-04-09T00:03:06.474Z,8.31
2023-04-09T00:04:06.499Z,8.32
2023-04-09T00:05:06.458Z,8.31
2023-04-09T00:06:06.423Z,8.29
2023-04-09T00:07:06.854Z,8.26
2023-04-09T00:08:06.440Z,8.23
2023-04-09T00:09:06.446Z,8.19
2023-04-09T00:10:06.476Z,8.17
2023-04-09T00:11:06.421Z,8.16
2023-04-09T00:12:06.853Z,8.13
2023-04-09T00:13:08.803Z,8.14
2023-04-09T00:14:06.447Z,8.11
2023-04-09T00:15:06.438Z,8.09
2023-04-09T00:16:06.469Z,8.06
2023-04-09T00:17:06.857Z,8.09
2023-04-09T00:18:06.466Z,8.1
2023-04-09T00:19:06.411Z,8.09
2023-04-09T00:20:06.441Z,8.08
2023-04-09T00:21:06.423Z,8.05
2023-04-09T00:22:06.840Z,8.04
2023-04-09T00:23:06.448Z,8.04
2023-04-09T00:24:08.781Z,8.06
2023-04-09T00:25:06.438Z,8.06
2023-04-09T00:26:06.437Z,8.05
2023-04-09T00:27:06.844Z,8.05
2023-04-09T00:28:06.417Z,8.03
2023-04-09T00:29:06.440Z,8.01
2023-04-09T00:30:06.428Z,8.02
2023-04-09T00:31:06.438Z,8
2023-04-09T00:32:06.976Z,7.98
2023-04-09T00:33:06.659Z,7.97
2023-04-09T00:34:06.435Z,8
2023-04-09T00:35:08.761Z,7.98
2023-04-09T00:36:06.440Z,7.96
2023-04-09T00:37:06.833Z,7.93
2023-04-09T00:38:06.433Z,7.91
2023-04-09T00:39:06.443Z,7.91
2023-04-09T00:40:07.381Z,7.94
2023-04-09T00:41:06.442Z,7.97
2023-04-09T00:42:06.844Z,7.99
2023-04-09T00:43:06.438Z,7.97
2023-04-09T00:44:06.427Z,7.94
2023-04-09T00:45:06.547Z,7.94
2023-04-09T00:46:08.835Z,7.93
2023-04-09T00:47:06.851Z,7.94
2023-04-09T00:48:06.445Z,7.94
2023-04-09T00:49:06.431Z,7.94
2023-04-09T00:50:06.408Z,7.97
2023-04-09T00:51:06.442Z,8
2023-04-09T00:52:06.864Z,8.02
2023-04-09T00:53:06.407Z,7.98
2023-04-09T00:54:06.430Z,7.97
2023-04-09T00:55:06.462Z,8
2023-04-09T00:56:06.418Z,8
2023-04-09T00:57:09.139Z,8.06
2023-04-09T00:58:06.407Z,8.05
2023-04-09T00:59:06.423Z,8.04
2023-04-09T01:00:06.441Z,8.01
2023-04-09T01:01:06.497Z,7.96
2023-04-09T01:02:07.402Z,7.97
2023-04-09T01:03:06.510Z,7.9
2023-04-09T01:04:06.432Z,7.9
2023-04-09T01:05:06.451Z,7.91
2023-04-09T01:06:06.443Z,7.9
2023-04-09T01:07:06.850Z,7.87
2023-04-09T01:08:08.775Z,7.83
2023-04-09T01:09:06.450Z,7.81
2023-04-09T01:10:06.423Z,7.8
2023-04-09T01:11:06.464Z,7.8
2023-04-09T01:12:06.851Z,7.83
2023-04-09T01:13:06.436Z,7.82
2023-04-09T01:14:06.440Z,7.81
2023-04-09T01:15:06.429Z,7.81
2023-04-09T01:16:06.439Z,7.79
2023-04-09T01:17:06.882Z,7.76
2023-04-09T01:18:06.487Z,7.75
2023-04-09T01:19:08.818Z,7.74
2023-04-09T01:20:06.451Z,7.71
2023-04-09T01:21:06.481Z,7.69
2023-04-09T01:22:06.864Z,7.69
2023-04-09T01:23:06.529Z,7.7
2023-04-09T01:24:06.435Z,7.68
2023-04-09T01:25:06.524Z,7.66
2023-04-09T01:26:06.406Z,7.62
2023-04-09T01:27:06.862Z,7.58
2023-04-09T01:28:06.436Z,7.53
2023-04-09T01:29:06.430Z,7.47
2023-04-09T01:30:08.814Z,7.41
2023-04-09T01:31:06.644Z,7.39
2023-04-09T01:32:06.841Z,7.3
2023-04-09T01:33:06.446Z,7.24
2023-04-09T01:34:06.424Z,7.21
2023-04-09T01:35:06.430Z,7.19
2023-04-09T01:36:06.442Z,7.14
2023-04-09T01:37:06.843Z,7.1
2023-04-09T01:38:06.422Z,7.09
2023-04-09T01:39:06.413Z,7.05
2023-04-09T01:40:07.362Z,7.02
2023-04-09T01:41:08.796Z,6.97
2023-04-09T01:42:06.845Z,6.92
2023-04-09T01:43:06.575Z,6.91
2023-04-09T01:44:06.418Z,6.85
2023-04-09T01:45:06.422Z,6.81
2023-04-09T01:46:06.424Z,6.78
2023-04-09T01:47:06.829Z,6.75
2023-04-09T01:48:06.441Z,6.73
2023-04-09T01:49:06.463Z,6.7
2023-04-09T01:50:06.422Z,6.69
2023-04-09T01:51:06.415Z,6.66
2023-04-09T01:52:11.269Z,6.64
2023-04-09T01:53:06.425Z,6.63
2023-04-09T01:54:06.441Z,6.61
2023-04-09T01:55:06.430Z,6.6
2023-04-09T01:56:06.437Z,6.58
2023-04-09T01:57:06.841Z,6.55
2023-04-09T01:58:06.451Z,6.49
2023-04-09T01:59:06.441Z,6.45
2023-04-09T02:00:06.417Z,6.44
2023-04-09T02:01:06.452Z,6.43
2023-04-09T02:02:06.909Z,6.43
2023-04-09T02:03:08.944Z,6.42
2023-04-09T02:04:06.509Z,6.42
2023-04-09T02:05:06.420Z,6.39
2023-04-09T02:06:06.435Z,6.39
2023-04-09T02:07:06.848Z,6.4
2023-04-09T02:08:06.416Z,6.4
2023-04-09T02:09:06.432Z,6.4
2023-04-09T02:10:06.485Z,6.38
2023-04-09T02:11:06.461Z,6.39
2023-04-09T02:12:06.967Z,6.38
2023-04-09T02:13:06.572Z,6.37
2023-04-09T02:14:08.989Z,6.36
2023-04-09T02:15:06.619Z,6.34
2023-04-09T02:16:06.616Z,6.34
2023-04-09T02:17:06.512Z,6.33
2023-04-09T02:18:06.440Z,6.34
2023-04-09T02:19:06.438Z,6.32
2023-04-09T02:20:06.425Z,6.32
2023-04-09T02:21:06.462Z,6.29
2023-04-09T02:22:06.968Z,6.28
2023-04-09T02:23:06.439Z,6.25
2023-04-09T02:24:06.436Z,6.27
2023-04-09T02:25:08.792Z,6.25
2023-04-09T02:26:06.409Z,6.26
2023-04-09T02:27:06.838Z,6.26
2023-04-09T02:28:06.455Z,6.21
2023-04-09T02:29:06.440Z,6.2
2023-04-09T02:30:06.415Z,6.18
2023-04-09T02:31:06.496Z,6.19
2023-04-09T02:32:06.855Z,6.18
2023-04-09T02:33:06.449Z,6.17
2023-04-09T02:34:06.445Z,6.18
2023-04-09T02:35:06.457Z,6.15
2023-04-09T02:36:08.861Z,6.15
2023-04-09T02:37:06.873Z,6.14
2023-04-09T02:38:06.444Z,6.13
2023-04-09T02:39:06.424Z,6.12
2023-04-09T02:40:07.734Z,6.06
2023-04-09T02:41:06.440Z,6.07
2023-04-09T02:42:06.832Z,6
2023-04-09T02:43:06.402Z,6.03
2023-04-09T02:44:06.438Z,6.05
2023-04-09T02:45:06.436Z,6.04
2023-04-09T02:46:06.526Z,5.98
2023-04-09T02:47:11.362Z,5.97
2023-04-09T02:48:06.415Z,5.99
2023-04-09T02:49:06.517Z,6.01
2023-04-09T02:50:06.883Z,6
2023-04-09T02:51:06.421Z,5.98
2023-04-09T02:52:06.836Z,5.96
2023-04-09T02:53:06.439Z,5.95
2023-04-09T02:54:06.427Z,5.95
2023-04-09T02:55:06.427Z,5.96
2023-04-09T02:56:06.419Z,5.94
2023-04-09T02:57:06.845Z,5.93
2023-04-09T02:58:08.756Z,5.96
2023-04-09T02:59:06.452Z,5.96
2023-04-09T03:00:06.474Z,5.95
2023-04-09T03:01:06.467Z,5.94
2023-04-09T03:02:06.662Z,5.91
2023-04-09T03:03:06.544Z,5.93
2023-04-09T03:04:06.519Z,5.93
2023-04-09T03:05:06.419Z,5.9
2023-04-09T03:06:06.443Z,5.85
2023-04-09T03:07:06.845Z,5.87
2023-04-09T03:08:06.441Z,5.89
2023-04-09T03:09:08.796Z,5.85
2023-04-09T03:10:06.464Z,5.85
2023-04-09T03:11:06.446Z,5.85
2023-04-09T03:12:06.838Z,5.83
2023-04-09T03:13:06.425Z,5.81
2023-04-09T03:14:06.467Z,5.8
2023-04-09T03:15:06.421Z,5.83
2023-04-09T03:16:06.517Z,5.76
2023-04-09T03:17:06.864Z,5.78
2023-04-09T03:18:06.466Z,5.74
2023-04-09T03:19:06.441Z,5.73
2023-04-09T03:20:08.803Z,5.73
2023-04-09T03:21:06.467Z,5.74
2023-04-09T03:22:06.855Z,5.76
2023-04-09T03:23:06.441Z,5.8
2023-04-09T03:24:06.440Z,5.85
2023-04-09T03:25:06.432Z,5.9
2023-04-09T03:26:06.476Z,5.87
2023-04-09T03:27:06.843Z,5.85
2023-04-09T03:28:06.441Z,5.84
2023-04-09T03:29:06.428Z,5.83
2023-04-09T03:30:06.476Z,5.82
2023-04-09T03:31:08.838Z,5.82
2023-04-09T03:32:06.862Z,5.83
2023-04-09T03:33:06.435Z,5.83
2023-04-09T03:34:06.444Z,5.82
2023-04-09T03:35:06.446Z,5.81
2023-04-09T03:36:06.442Z,5.81
2023-04-09T03:37:06.572Z,5.78
2023-04-09T03:38:06.437Z,5.76
2023-04-09T03:39:06.429Z,5.77
2023-04-09T03:40:06.445Z,5.79
2023-04-09T03:41:06.602Z,5.8
2023-04-09T03:42:11.226Z,5.76
2023-04-09T03:43:06.425Z,5.75
2023-04-09T03:44:06.427Z,5.78
2023-04-09T03:45:06.468Z,5.78
2023-04-09T03:46:06.484Z,5.76
2023-04-09T03:47:06.830Z,5.76
2023-04-09T03:48:06.440Z,5.76
2023-04-09T03:49:06.433Z,5.73
2023-04-09T03:50:06.444Z,5.72
2023-04-09T03:51:06.441Z,5.73
2023-04-09T03:52:06.864Z,5.71
2023-04-09T03:53:08.804Z,5.71
2023-04-09T03:54:06.440Z,5.7
2023-04-09T03:55:06.444Z,5.68
2023-04-09T03:56:06.427Z,5.66
2023-04-09T03:57:06.854Z,5.67
2023-04-09T03:58:06.441Z,5.68
2023-04-09T03:59:06.451Z,5.68
2023-04-09T04:00:06.443Z,5.69
2023-04-09T04:01:06.435Z,5.67
2023-04-09T04:02:06.888Z,5.65
2023-04-09T04:03:06.750Z,5.63
2023-04-09T04:04:08.976Z,5.62
2023-04-09T04:05:06.439Z,5.59
2023-04-09T04:06:06.436Z,5.58
2023-04-09T04:07:06.850Z,5.59
2023-04-09T04:08:06.410Z,5.6
2023-04-09T04:09:06.437Z,5.59
2023-04-09T04:10:06.592Z,5.59
2023-04-09T04:11:06.418Z,5.54
2023-04-09T04:12:06.851Z,5.5
2023-04-09T04:13:06.504Z,5.52
2023-04-09T04:14:06.432Z,5.51
2023-04-09T04:15:08.786Z,5.49
2023-04-09T04:16:06.513Z,5.48
2023-04-09T04:17:06.535Z,5.48
2023-04-09T04:18:06.439Z,5.48
2023-04-09T04:19:06.424Z,5.46
2023-04-09T04:20:06.420Z,5.49
2023-04-09T04:21:06.440Z,5.49
2023-04-09T04:22:06.854Z,5.49
2023-04-09T04:23:06.445Z,5.47
2023-04-09T04:24:06.460Z,5.46
2023-04-09T04:25:06.467Z,5.45
2023-04-09T04:26:08.841Z,5.43
2023-04-09T04:27:06.851Z,5.41
2023-04-09T04:28:06.432Z,5.37
2023-04-09T04:29:06.424Z,5.37
2023-04-09T04:30:06.424Z,5.35
2023-04-09T04:31:06.439Z,5.33
2023-04-09T04:32:06.908Z,5.3
2023-04-09T04:33:06.427Z,5.33
2023-04-09T04:34:06.416Z,5.35
2023-04-09T04:35:06.426Z,5.37
2023-04-09T04:36:06.443Z,5.38
2023-04-09T04:37:09.277Z,5.37
2023-04-09T04:38:06.428Z,5.37
2023-04-09T04:39:06.444Z,5.39
2023-04-09T04:40:06.433Z,5.39
2023-04-09T04:41:06.437Z,5.41
2023-04-09T04:42:06.848Z,5.42
2023-04-09T04:43:06.423Z,5.41
2023-04-09T04:44:06.436Z,5.43
2023-04-09T04:45:06.485Z,5.43
2023-04-09T04:46:06.500Z,5.44
2023-04-09T04:47:06.404Z,5.43
2023-04-09T04:48:08.800Z,5.44
2023-04-09T04:49:06.437Z,5.44
2023-04-09T04:50:06.448Z,5.46
2023-04-09T04:51:06.436Z,5.46
2023-04-09T04:52:06.839Z,5.46
2023-04-09T04:53:06.445Z,5.44
2023-04-09T04:54:06.424Z,5.43
2023-04-09T04:55:06.442Z,5.45
2023-04-09T04:56:06.411Z,5.49
2023-04-09T04:57:06.824Z,5.51
2023-04-09T04:58:06.453Z,5.52
2023-04-09T04:59:08.806Z,5.54
2023-04-09T05:00:06.449Z,5.55
2023-04-09T05:01:06.765Z,5.58
2023-04-09T05:02:06.897Z,5.58
2023-04-09T05:03:06.667Z,5.57
2023-04-09T05:04:06.445Z,5.57
2023-04-09T05:05:06.419Z,5.59
2023-04-09T05:06:06.413Z,5.6
2023-04-09T05:07:06.843Z,5.61
2023-04-09T05:08:06.422Z,5.62
2023-04-09T05:09:06.424Z,5.61
2023-04-09T05:10:08.756Z,5.62
2023-04-09T05:11:06.433Z,5.63
2023-04-09T05:12:06.836Z,5.67
2023-04-09T05:13:06.434Z,5.7
2023-04-09T05:14:06.435Z,5.73
2023-04-09T05:15:06.419Z,5.76
2023-04-09T05:16:06.457Z,5.74
2023-04-09T05:17:06.861Z,5.72
2023-04-09T05:18:06.444Z,5.74
2023-04-09T05:19:06.428Z,5.79
2023-04-09T05:20:06.440Z,5.84
2023-04-09T05:21:08.800Z,5.88
2023-04-09T05:22:06.846Z,5.91
2023-04-09T05:23:06.421Z,5.92
2023-04-09T05:24:06.405Z,5.95
2023-04-09T05:25:06.442Z,5.99
2023-04-09T05:26:06.421Z,6.01
2023-04-09T05:27:06.856Z,6.03
2023-04-09T05:28:06.469Z,6.11
2023-04-09T05:29:06.440Z,6.19
2023-04-09T05:30:06.426Z,6.26
2023-04-09T05:31:06.450Z,6.33
2023-04-09T05:32:11.224Z,6.42
2023-04-09T05:33:06.435Z,6.54
2023-04-09T05:34:06.432Z,6.62
2023-04-09T05:35:06.450Z,6.67
2023-04-09T05:36:06.452Z,6.77
2023-04-09T05:37:06.844Z,6.87
2023-04-09T05:38:06.427Z,6.97
2023-04-09T05:39:06.423Z,7.05
2023-04-09T05:40:07.372Z,7.12
2023-04-09T05:41:06.438Z,7.2
2023-04-09T05:42:06.837Z,7.27
2023-04-09T05:43:08.784Z,7.34
2023-04-09T05:44:06.471Z,7.41
2023-04-09T05:45:06.431Z,7.45
2023-04-09T05:46:06.448Z,7.46
2023-04-09T05:47:06.534Z,7.5
2023-04-09T05:48:06.446Z,7.56
2023-04-09T05:49:06.441Z,7.65
2023-04-09T05:50:06.453Z,7.72
2023-04-09T05:51:06.433Z,7.77
2023-04-09T05:52:06.855Z,7.82
2023-04-09T05:53:06.445Z,7.88
2023-04-09T05:54:08.796Z,7.93
2023-04-09T05:55:06.455Z,7.99
2023-04-09T05:56:06.449Z,8.01
2023-04-09T05:57:06.580Z,8.04
2023-04-09T05:58:06.428Z,8.12
2023-04-09T05:59:06.417Z,8.19
2023-04-09T06:00:06.443Z,8.27
2023-04-09T06:01:06.436Z,8.34
2023-04-09T06:02:06.918Z,8.39
2023-04-09T06:03:06.505Z,8.44
2023-04-09T06:04:06.660Z,8.46
2023-04-09T06:05:08.795Z,8.48
2023-04-09T06:06:06.474Z,8.56
2023-04-09T06:07:06.847Z,8.64
2023-04-09T06:08:06.444Z,8.71
2023-04-09T06:09:06.430Z,8.75
2023-04-09T06:10:07.435Z,8.79
2023-04-09T06:11:06.433Z,8.85
2023-04-09T06:12:06.508Z,8.91
2023-04-09T06:13:06.430Z,8.96
2023-04-09T06:14:06.436Z,8.99
2023-04-09T06:15:06.449Z,9.11
2023-04-09T06:16:08.850Z,9.16
2023-04-09T06:17:06.912Z,9.23
2023-04-09T06:18:06.578Z,9.29
2023-04-09T06:19:06.428Z,9.31
2023-04-09T06:20:06.465Z,9.36
2023-04-09T06:21:06.450Z,9.37
2023-04-09T06:22:06.841Z,9.34
2023-04-09T06:23:06.460Z,9.42
2023-04-09T06:24:06.466Z,9.48
2023-04-09T06:25:06.434Z,9.51
2023-04-09T06:26:06.447Z,9.6
2023-04-09T06:27:11.273Z,9.66
2023-04-09T06:28:06.433Z,9.72
2023-04-09T06:29:06.469Z,9.8
2023-04-09T06:30:06.428Z,9.84
2023-04-09T06:31:06.517Z,9.89
2023-04-09T06:32:06.879Z,9.96
2023-04-09T06:33:06.469Z,10.02
2023-04-09T06:34:06.438Z,10.11
2023-04-09T06:35:06.442Z,10.21
2023-04-09T06:36:06.452Z,10.26
2023-04-09T06:37:06.931Z,10.33
2023-04-09T06:38:08.746Z,10.44
2023-04-09T06:39:06.442Z,10.54
2023-04-09T06:40:06.442Z,10.65
2023-04-09T06:41:06.427Z,10.74
2023-04-09T06:42:06.866Z,10.82
2023-04-09T06:43:06.435Z,10.86
2023-04-09T06:44:06.443Z,10.96
2023-04-09T06:45:06.420Z,11.08
2023-04-09T06:46:06.470Z,11.11
2023-04-09T06:47:06.544Z,11.13
2023-04-09T06:48:06.493Z,11.2
2023-04-09T06:49:08.809Z,11.29
2023-04-09T06:50:06.438Z,11.31
2023-04-09T06:51:06.448Z,11.31
2023-04-09T06:52:06.898Z,11.34
2023-04-09T06:53:06.419Z,11.36
2023-04-09T06:54:06.448Z,11.34
2023-04-09T06:55:06.443Z,11.38
2023-04-09T06:56:06.443Z,11.47
2023-04-09T06:57:07.034Z,11.5
2023-04-09T06:58:06.442Z,11.59
2023-04-09T06:59:06.430Z,11.68
2023-04-09T07:00:08.798Z,11.72
2023-04-09T07:01:06.436Z,11.86
2023-04-09T07:02:06.972Z,11.94
2023-04-09T07:03:06.522Z,12.06
2023-04-09T07:04:06.456Z,12.1
2023-04-09T07:05:06.686Z,12.13
2023-04-09T07:06:06.440Z,12.13
2023-04-09T07:07:06.883Z,12.14
2023-04-09T07:08:06.438Z,12.18
2023-04-09T07:09:06.436Z,12.21
2023-04-09T07:10:07.372Z,12.21
2023-04-09T07:11:08.787Z,12.21
2023-04-09T07:12:06.876Z,12.24
2023-04-09T07:13:06.452Z,12.28
2023-04-09T07:14:06.439Z,12.32
2023-04-09T07:15:06.450Z,12.33
2023-04-09T07:16:06.450Z,12.44
2023-04-09T07:17:06.903Z,12.4
2023-04-09T07:18:06.505Z,12.22
2023-04-09T07:19:06.441Z,12.21
2023-04-09T07:20:06.416Z,12.1
2023-04-09T07:21:06.426Z,12.2
2023-04-09T07:22:11.306Z,12.37
2023-04-09T07:23:06.448Z,12.23
2023-04-09T07:24:06.428Z,12.25
2023-04-09T07:25:06.580Z,12.42
2023-04-09T07:26:06.458Z,12.51
2023-04-09T07:27:06.901Z,12.76
2023-04-09T07:28:06.445Z,12.92
2023-04-09T07:29:06.443Z,13.15
2023-04-09T07:30:06.445Z,13.22
2023-04-09T07:31:06.511Z,13.35
2023-04-09T07:32:06.934Z,13.44
2023-04-09T07:33:08.786Z,13.43
2023-04-09T07:34:06.419Z,13.19
2023-04-09T07:35:06.441Z,13.16
2023-04-09T07:36:06.481Z,13.25
2023-04-09T07:37:06.916Z,13.46
2023-04-09T07:38:06.454Z,13.57
2023-04-09T07:39:06.520Z,13.59
2023-04-09T07:40:07.374Z,13.71
2023-04-09T07:41:06.436Z,13.72
2023-04-09T07:42:06.596Z,13.79
2023-04-09T07:43:06.450Z,13.82
2023-04-09T07:44:08.750Z,13.87
2023-04-09T07:45:06.453Z,13.91
2023-04-09T07:46:06.422Z,14.04
2023-04-09T07:47:07.014Z,14.08
2023-04-09T07:48:06.444Z,14.13
2023-04-09T07:49:06.465Z,13.98
2023-04-09T07:50:06.744Z,13.97
2023-04-09T07:51:06.435Z,13.99
2023-04-09T07:52:06.595Z,14.2
2023-04-09T07:53:06.447Z,14.36
2023-04-09T07:54:06.437Z,14.54
2023-04-09T07:55:08.822Z,14.57
2023-04-09T07:56:06.437Z,14.57
2023-04-09T07:57:06.921Z,14.65
2023-04-09T07:58:06.437Z,14.55
2023-04-09T07:59:06.426Z,14.27
2023-04-09T08:00:06.432Z,13.9
2023-04-09T08:01:06.454Z,13.79
2023-04-09T08:02:06.540Z,13.71
2023-04-09T08:03:06.663Z,13.63
2023-04-09T08:04:06.740Z,13.55
2023-04-09T08:05:06.481Z,13.48
2023-04-09T08:06:08.753Z,13.76
2023-04-09T08:07:06.876Z,14.12
2023-04-09T08:08:06.445Z,14.31
2023-04-09T08:09:06.442Z,14.29
2023-04-09T08:10:07.379Z,14.33
2023-04-09T08:11:06.419Z,14.56
2023-04-09T08:12:06.858Z,14.89
2023-04-09T08:13:06.423Z,15.02
2023-04-09T08:14:06.438Z,14.91
2023-04-09T08:15:06.436Z,14.89
2023-04-09T08:16:06.460Z,14.92
2023-04-09T08:17:11.285Z,14.91
2023-04-09T08:18:06.521Z,14.85
2023-04-09T08:19:06.429Z,14.77
2023-04-09T08:20:06.444Z,14.78
2023-04-09T08:21:06.455Z,15.07
2023-04-09T08:22:06.895Z,15.42
2023-04-09T08:23:06.443Z,15.32
2023-04-09T08:24:06.411Z,15.2
2023-04-09T08:25:06.459Z,15.18
2023-04-09T08:26:06.430Z,15.28
2023-04-09T08:27:06.853Z,14.86
2023-04-09T08:28:08.757Z,14.73
2023-04-09T08:29:06.499Z,14.73
2023-04-09T08:30:06.425Z,15
2023-04-09T08:31:06.441Z,15.26
2023-04-09T08:32:06.484Z,15.48
2023-04-09T08:33:06.492Z,15.46
2023-04-09T08:34:06.449Z,15.22
2023-04-09T08:35:06.536Z,15.13
2023-04-09T08:36:06.455Z,14.86
2023-04-09T08:37:06.892Z,14.86
2023-04-09T08:38:06.437Z,14.86
2023-04-09T08:39:08.822Z,14.76
2023-04-09T08:40:07.369Z,14.87
2023-04-09T08:41:06.427Z,15.13
2023-04-09T08:42:06.464Z,15.27
2023-04-09T08:43:06.444Z,15.61
2023-04-09T08:44:06.440Z,15.73
2023-04-09T08:45:06.444Z,15.89
2023-04-09T08:46:06.498Z,15.71
2023-04-09T08:47:06.915Z,15.56
2023-04-09T08:48:06.492Z,15.66
2023-04-09T08:49:06.426Z,15.82
2023-04-09T08:50:08.767Z,16.05
2023-04-09T08:51:06.419Z,16.16
2023-04-09T08:52:06.911Z,16.18
2023-04-09T08:53:06.452Z,16.21
2023-04-09T08:54:06.444Z,16.42
2023-04-09T08:55:06.483Z,16.58
2023-04-09T08:56:06.436Z,16.81
2023-04-09T08:57:06.937Z,16.94
2023-04-09T08:58:06.447Z,16.77
2023-04-09T08:59:06.403Z,16.86
2023-04-09T09:00:06.451Z,16.82
2023-04-09T09:01:08.829Z,16.79
2023-04-09T09:02:07.012Z,16.7
2023-04-09T09:03:06.744Z,16.26
2023-04-09T09:04:06.455Z,15.79
2023-04-09T09:05:06.445Z,15.69
2023-04-09T09:06:06.425Z,15.5
2023-04-09T09:07:06.874Z,15.44
2023-04-09T09:08:06.459Z,15.35
2023-04-09T09:09:06.435Z,15.37
2023-04-09T09:10:06.465Z,15.52
2023-04-09T09:11:06.446Z,15.7
2023-04-09T09:12:11.293Z,15.76
2023-04-09T09:13:06.423Z,15.52
2023-04-09T09:14:06.418Z,15.34
2023-04-09T09:15:06.430Z,15.36
2023-04-09T09:16:06.433Z,15.64
2023-04-09T09:17:07.011Z,15.81
2023-04-09T09:18:06.463Z,15.99
2023-04-09T09:19:06.415Z,16.23
2023-04-09T09:20:06.440Z,16.29
2023-04-09T09:21:06.447Z,16.49
2023-04-09T09:22:06.886Z,16.58
2023-04-09T09:23:08.820Z,16.52
2023-04-09T09:24:06.417Z,16.45
2023-04-09T09:25:06.566Z,16.57
2023-04-09T09:26:06.438Z,16.75
2023-04-09T09:27:06.877Z,16.53
2023-04-09T09:28:06.413Z,16.68
2023-04-09T09:29:06.501Z,16.7
2023-04-09T09:30:06.449Z,16.43
2023-04-09T09:31:06.472Z,16.58
2023-04-09T09:32:06.889Z,16.65
2023-04-09T09:33:06.441Z,16.54
2023-04-09T09:34:08.764Z,16.49
2023-04-09T09:35:06.423Z,16.66
2023-04-09T09:36:06.452Z,17.02
2023-04-09T09:37:07.972Z,17.13
2023-04-09T09:38:06.421Z,17.04
2023-04-09T09:39:06.564Z,17.11
2023-04-09T09:40:07.430Z,17.2
2023-04-09T09:41:06.445Z,17.36
2023-04-09T09:42:06.873Z,17.38
2023-04-09T09:43:06.454Z,17.34
2023-04-09T09:44:06.415Z,17.4
2023-04-09T09:45:08.756Z,17.11
2023-04-09T09:46:06.463Z,16.95
2023-04-09T09:47:06.562Z,16.95
2023-04-09T09:48:06.443Z,17.16
2023-04-09T09:49:06.441Z,17.25
2023-04-09T09:50:06.440Z,17.19
2023-04-09T09:51:06.445Z,16.85
2023-04-09T09:52:06.618Z,16.5
2023-04-09T09:53:06.455Z,16.53
2023-04-09T09:54:06.441Z,16.69
2023-04-09T09:55:06.441Z,16.52
2023-04-09T09:56:08.820Z,16.2
2023-04-09T09:57:06.885Z,16.24
2023-04-09T09:58:06.503Z,16.36
2023-04-09T09:59:06.439Z,16.67
2023-04-09T10:00:06.434Z,16.77
2023-04-09T10:01:06.432Z,16.72
2023-04-09T10:02:07.000Z,16.63
2023-04-09T10:03:06.521Z,16.5
2023-04-09T10:04:06.479Z,16.39
2023-04-09T10:05:06.438Z,16.3
2023-04-09T10:06:06.432Z,16.26
2023-04-09T10:07:11.245Z,16.2
2023-04-09T10:08:06.438Z,16.19
2023-04-09T10:09:06.458Z,16.3
2023-04-09T10:10:07.384Z,16.27
2023-04-09T10:11:06.428Z,16.06
2023-04-09T10:12:06.580Z,16.02
2023-04-09T10:13:06.459Z,16.14
2023-04-09T10:14:06.468Z,16.22
2023-04-09T10:15:06.435Z,16.31
2023-04-09T10:16:06.478Z,16.29
2023-04-09T10:17:06.442Z,16.28
2023-04-09T10:18:08.790Z,16.26
2023-04-09T10:19:06.445Z,16.22
2023-04-09T10:20:06.453Z,16.12
2023-04-09T10:21:06.435Z,16.03
2023-04-09T10:22:06.548Z,16.04
2023-04-09T10:23:06.435Z,16.13
2023-04-09T10:24:06.437Z,16.44
2023-04-09T10:25:06.477Z,16.87
2023-04-09T10:26:06.450Z,17.28
2023-04-09T10:27:06.851Z,17.38
2023-04-09T10:28:06.415Z,17.48
2023-04-09T10:29:08.806Z,17.48
2023-04-09T10:30:06.414Z,17.6
2023-04-09T10:31:06.456Z,17.72
2023-04-09T10:32:06.920Z,17.84
2023-04-09T10:33:06.501Z,18.01
2023-04-09T10:34:07.294Z,18.09
2023-04-09T10:35:06.437Z,18.34
2023-04-09T10:36:06.513Z,18.55
2023-04-09T10:37:06.598Z,18.64
2023-04-09T10:38:06.429Z,18.54
2023-04-09T10:39:06.436Z,18.47
2023-04-09T10:40:10.797Z,18.61
2023-04-09T10:41:06.437Z,18.44
2023-04-09T10:42:06.499Z,18.06
2023-04-09T10:43:06.454Z,17.84
2023-04-09T10:44:06.430Z,17.63
2023-04-09T10:45:06.432Z,17.59
2023-04-09T10:46:06.463Z,17.61
2023-04-09T10:47:06.895Z,17.53
2023-04-09T10:48:06.549Z,17.44
2023-04-09T10:49:06.449Z,17.12
2023-04-09T10:50:06.434Z,16.92
2023-04-09T10:51:08.795Z,16.88
2023-04-09T10:52:07.915Z,16.88
2023-04-09T10:53:06.453Z,16.9
2023-04-09T10:54:06.454Z,16.81
2023-04-09T10:55:06.470Z,16.67
2023-04-09T10:56:06.423Z,16.69
2023-04-09T10:57:06.582Z,16.83
2023-04-09T10:58:07.123Z,16.95
2023-04-09T10:59:06.438Z,16.91
2023-04-09T11:00:06.440Z,16.75
2023-04-09T11:01:06.416Z,16.42
2023-04-09T11:02:09.347Z,16.17
2023-04-09T11:03:06.553Z,16.1
2023-04-09T11:04:06.764Z,16.1
2023-04-09T11:05:06.668Z,16.13
2023-04-09T11:06:06.438Z,16.13
2023-04-09T11:07:06.889Z,16.23
2023-04-09T11:08:06.450Z,16.22
2023-04-09T11:09:06.432Z,16.3
2023-04-09T11:10:07.375Z,16.55
2023-04-09T11:11:06.456Z,16.72
2023-04-09T11:12:06.560Z,16.92
2023-04-09T11:13:08.797Z,17.06
2023-04-09T11:14:06.441Z,17.68
2023-04-09T11:15:06.457Z,17.99
2023-04-09T11:16:06.494Z,18.29
2023-04-09T11:17:06.549Z,18.66
2023-04-09T11:18:06.452Z,18.89
2023-04-09T11:19:06.519Z,19.09
2023-04-09T11:20:06.437Z,19.18
2023-04-09T11:21:06.437Z,19.11
2023-04-09T11:22:06.452Z,19.08
2023-04-09T11:23:06.441Z,19.06
2023-04-09T11:24:08.793Z,19.04
2023-04-09T11:25:06.459Z,19.09
2023-04-09T11:26:06.423Z,19.12
2023-04-09T11:27:06.557Z,19.18
2023-04-09T11:28:06.514Z,19.16
2023-04-09T11:29:06.432Z,19.26
2023-04-09T11:30:06.459Z,19.13
2023-04-09T11:31:06.452Z,19.13
2023-04-09T11:32:06.625Z,19.23
2023-04-09T11:33:06.470Z,19.25
2023-04-09T11:34:06.436Z,19.13
2023-04-09T11:35:08.752Z,19.01
2023-04-09T11:36:06.541Z,18.99
2023-04-09T11:37:06.616Z,18.99
2023-04-09T11:38:06.486Z,18.99
2023-04-09T11:39:06.450Z,18.85
2023-04-09T11:40:07.360Z,18.63
2023-04-09T11:41:06.439Z,18.49
2023-04-09T11:42:06.878Z,18.14
2023-04-09T11:43:06.441Z,17.95
2023-04-09T11:44:06.412Z,17.92
2023-04-09T11:45:06.435Z,17.64
2023-04-09T11:46:08.795Z,17.53
2023-04-09T11:47:06.626Z,17.84
2023-04-09T11:48:06.445Z,18.13
2023-04-09T11:49:06.438Z,18.08
2023-04-09T11:50:06.446Z,17.75
2023-04-09T11:51:06.443Z,17.53
2023-04-09T11:52:06.437Z,17.4
2023-04-09T11:53:08.313Z,17.3
2023-04-09T11:54:06.427Z,17.03
2023-04-09T11:55:06.435Z,16.69
2023-04-09T11:56:06.433Z,16.66
2023-04-09T11:57:08.865Z,16.76
2023-04-09T11:58:06.446Z,16.59
2023-04-09T11:59:06.439Z,16.72
2023-04-09T12:00:06.427Z,16.65
2023-04-09T12:01:06.440Z,16.55
2023-04-09T12:02:06.517Z,16.53
2023-04-09T12:03:06.596Z,16.49
2023-04-09T12:04:06.505Z,16.37
2023-04-09T12:05:06.568Z,16.39
2023-04-09T12:06:06.439Z,16.88
2023-04-09T12:07:06.556Z,17.03
2023-04-09T12:08:08.749Z,17.24
2023-04-09T12:09:06.446Z,16.88
2023-04-09T12:10:07.374Z,16.69
2023-04-09T12:11:06.437Z,16.65
2023-04-09T12:12:06.540Z,16.73
2023-04-09T12:13:06.474Z,16.68
2023-04-09T12:14:06.445Z,16.66
2023-04-09T12:15:06.406Z,16.96
2023-04-09T12:16:06.467Z,16.89
2023-04-09T12:17:06.543Z,16.92
2023-04-09T12:18:06.497Z,17.07
2023-04-09T12:19:08.742Z,17.62
2023-04-09T12:20:06.446Z,17.81
2023-04-09T12:21:06.444Z,17.8
2023-04-09T12:22:06.931Z,17.48
2023-04-09T12:23:06.426Z,17.11
2023-04-09T12:24:06.436Z,17.1
2023-04-09T12:25:06.459Z,17.24
2023-04-09T12:26:06.438Z,17.25
2023-04-09T12:27:06.551Z,17.03
2023-04-09T12:28:06.435Z,16.83
2023-04-09T12:29:06.437Z,16.58
2023-04-09T12:30:08.797Z,16.27
2023-04-09T12:31:06.436Z,15.99
2023-04-09T12:32:06.622Z,15.88
2023-04-09T12:33:08.247Z,15.97
2023-04-09T12:34:06.438Z,16.08
2023-04-09T12:35:06.452Z,16.18
2023-04-09T12:36:06.492Z,16.24
2023-04-09T12:37:06.463Z,16.36
2023-04-09T12:38:06.440Z,16.46
2023-04-09T12:39:06.418Z,16.54
2023-04-09T12:40:07.373Z,16.6
2023-04-09T12:41:08.924Z,16.64
2023-04-09T12:42:06.485Z,16.65
2023-04-09T12:43:06.439Z,16.61
2023-04-09T12:44:06.436Z,16.69
2023-04-09T12:45:06.432Z,16.52
2023-04-09T12:46:06.467Z,16.51
2023-04-09T12:47:06.916Z,16.42
2023-04-09T12:48:06.496Z,16.42
2023-04-09T12:49:06.451Z,16.35
2023-04-09T12:50:06.492Z,16.16
2023-04-09T12:51:06.433Z,15.91
2023-04-09T12:52:08.872Z,15.77
2023-04-09T12:53:06.444Z,15.57
2023-04-09T12:54:06.418Z,15.43
2023-04-09T12:55:06.411Z,15.42
2023-04-09T12:56:06.735Z,15.77
2023-04-09T12:57:06.927Z,16.14
2023-04-09T12:58:06.438Z,16.35
2023-04-09T12:59:06.449Z,16.67
2023-04-09T13:00:06.425Z,17.02
2023-04-09T13:01:06.484Z,17.32
2023-04-09T13:02:06.695Z,17.56
2023-04-09T13:03:08.840Z,17.54
2023-04-09T13:04:06.579Z,17.41
2023-04-09T13:05:06.440Z,17.44
2023-04-09T13:06:06.447Z,17.64
2023-04-09T13:07:06.493Z,17.96
2023-04-09T13:08:06.437Z,18.18